Terminal Aerodrome Forecast
Issued by NWS North Platte, NE

Home | Current Version | Previous Version | Graphics & Text | Print | Product List | Glossary On
Versions: 1 2 3 4 5 6 7 8 9 10 11 12 13
678
FTUS43 KLBF 231742 RRA
TAFVTN
TAF
KVTN 231742Z 2318/2418 07006KT P6SM BKN100
     FM231900 12008KT P6SM BKN100
     FM240600 08007KT P6SM SCT015 OVC080
     FM240800 06008KT P6SM OVC015
     FM241200 03010KT 2SM -SN OVC012
     FM241700 01014G22KT 1/2SM SN OVC007=

USA.gov is the U.S. government's official web portal to all federal, state and local government web resources and services.